Time;durP1;ratioP1;P1;durP2;ratioP2;P2;SDS_P1;SDS_P2;PMS_P1;PMS_P2;Temp;Humidity;BMP_temperature;BMP_pressure;BME280_temperature;BME280_humidity;BME280_pressure;Samples;Min_cycle;Max_cycle;Signal;HPM_P1;HPM_P2
2022/08/31 00:05:46;;;;;;;2.25;0.70;;;16.40;96.90;;;;;;4980358;28;20049;-55
2022/08/31 00:08:11;;;;;;;2.67;0.68;;;16.40;97.00;;;;;;4949536;28;20117;-55
2022/08/31 00:10:40;;;;;;;2.13;0.90;;;16.40;97.00;;;;;;5016403;28;20046;-52
2022/08/31 00:13:07;;;;;;;2.15;0.75;;;16.40;97.00;;;;;;4988954;28;20104;-53
2022/08/31 00:15:33;;;;;;;1.40;0.52;;;16.20;97.10;;;;;;4996291;28;20137;-53
2022/08/31 00:17:59;;;;;;;1.42;0.70;;;16.30;97.10;;;;;;4984170;28;20127;-53
2022/08/31 00:20:27;;;;;;;1.60;0.80;;;16.30;97.10;;;;;;4991569;28;20081;-51
2022/08/31 00:22:52;;;;;;;3.90;0.80;;;16.20;97.20;;;;;;4995738;28;20049;-53
2022/08/31 00:25:18;;;;;;;1.90;0.60;;;16.20;97.20;;;;;;5008682;28;20484;-55
2022/08/31 00:27:44;;;;;;;4.03;0.70;;;16.10;97.30;;;;;;4984575;28;20115;-54
2022/08/31 00:30:11;;;;;;;4.72;0.93;;;16.10;97.30;;;;;;4989274;28;20437;-55
2022/08/31 00:32:37;;;;;;;2.08;0.63;;;16.10;97.40;;;;;;5003918;28;20111;-52
2022/08/31 00:35:04;;;;;;;1.73;0.60;;;16.00;97.50;;;;;;4968714;28;20051;-54
2022/08/31 00:37:30;;;;;;;4.10;0.70;;;16.00;97.60;;;;;;4991430;28;20046;-52
2022/08/31 00:39:56;;;;;;;2.47;0.65;;;15.90;97.70;;;;;;4972785;28;20033;-56
2022/08/31 00:42:22;;;;;;;2.28;0.73;;;15.90;97.80;;;;;;4980788;28;20621;-54
2022/08/31 00:44:48;;;;;;;1.63;0.70;;;15.80;97.80;;;;;;4974109;28;20463;-55
2022/08/31 00:47:14;;;;;;;1.40;0.57;;;15.80;98.00;;;;;;5006741;28;20056;-55
2022/08/31 00:49:43;;;;;;;0.80;0.60;;;15.80;98.00;;;;;;4987891;28;20049;-56
2022/08/31 00:52:20;;;;;;;1.27;0.77;;;15.70;98.10;;;;;;4999923;28;20460;-56
2022/08/31 00:54:52;;;;;;;1.02;0.60;;;15.70;98.10;;;;;;4981758;28;20042;-56
2022/08/31 00:57:20;;;;;;;2.78;0.70;;;15.70;98.10;;;;;;4995067;28;20103;-52
2022/08/31 00:59:47;;;;;;;2.80;0.70;;;15.70;98.20;;;;;;5003926;28;20029;-54
2022/08/31 01:02:13;;;;;;;4.00;1.10;;;15.60;98.20;;;;;;4998382;28;20061;-56
2022/08/31 01:04:39;;;;;;;0.98;0.63;;;15.60;98.30;;;;;;4977467;28;20038;-54
2022/08/31 01:07:07;;;;;;;2.53;0.80;;;15.60;98.30;;;;;;4987960;28;20034;-54
2022/08/31 01:09:36;;;;;;;2.13;0.60;;;15.60;98.30;;;;;;4973602;28;20834;-55
2022/08/31 01:12:03;;;;;;;4.38;0.70;;;15.50;98.30;;;;;;4968639;28;20465;-56
2022/08/31 01:14:29;;;;;;;1.45;0.70;;;15.50;98.30;;;;;;4993088;28;20046;-54
2022/08/31 01:16:55;;;;;;;2.70;0.80;;;15.50;98.30;;;;;;5010225;28;20049;-55
2022/08/31 01:19:27;;;;;;;1.98;0.80;;;15.50;98.30;;;;;;5001698;28;20073;-55
2022/08/31 01:22:10;;;;;;;1.13;0.60;;;15.40;98.40;;;;;;4981559;28;20061;-53
2022/08/31 01:24:38;;;;;;;1.38;0.60;;;15.40;98.40;;;;;;4981937;28;20068;-53
2022/08/31 01:27:06;;;;;;;3.47;0.70;;;15.40;98.40;;;;;;4982292;28;20035;-53
2022/08/31 01:29:33;;;;;;;0.60;0.50;;;15.40;98.40;;;;;;4982785;28;20049;-54
2022/08/31 01:32:00;;;;;;;1.90;0.60;;;15.40;98.50;;;;;;4982487;28;20045;-56
2022/08/31 01:34:26;;;;;;;1.05;0.60;;;15.40;98.50;;;;;;4987483;28;20049;-54
2022/08/31 01:36:53;;;;;;;0.90;0.65;;;15.30;98.50;;;;;;4999140;28;20103;-55
2022/08/31 01:39:19;;;;;;;1.10;0.70;;;15.30;98.50;;;;;;4982665;28;20057;-52
2022/08/31 01:41:45;;;;;;;2.35;0.85;;;15.30;98.40;;;;;;4971477;28;20044;-54
2022/08/31 01:44:14;;;;;;;1.85;0.70;;;15.20;98.40;;;;;;5001468;28;20501;-55
2022/08/31 01:46:41;;;;;;;1.00;0.70;;;15.20;98.40;;;;;;4982674;28;20532;-54
2022/08/31 01:49:08;;;;;;;0.88;0.65;;;15.30;98.40;;;;;;4976563;28;20128;-52
2022/08/31 01:51:34;;;;;;;3.60;0.70;;;15.20;98.50;;;;;;4981518;28;20042;-53
2022/08/31 01:53:59;;;;;;;3.05;0.75;;;15.20;98.50;;;;;;4987492;28;20044;-54
2022/08/31 01:56:29;;;;;;;2.00;0.60;;;15.10;98.60;;;;;;4993131;28;20096;-54
2022/08/31 01:58:55;;;;;;;1.15;0.55;;;15.10;98.50;;;;;;4964979;28;20052;-56
2022/08/31 02:01:27;;;;;;;1.13;0.75;;;15.10;98.60;;;;;;4979380;28;20137;-55
2022/08/31 02:03:53;;;;;;;1.08;0.60;;;15.10;98.60;;;;;;4980955;28;20050;-54
2022/08/31 02:06:19;;;;;;;2.33;0.70;;;15.10;98.60;;;;;;4990315;28;20045;-55
2022/08/31 02:08:45;;;;;;;0.75;0.70;;;15.10;98.60;;;;;;4995910;28;20400;-52
2022/08/31 02:11:10;;;;;;;1.20;0.65;;;15.00;98.60;;;;;;4994566;28;20133;-56
2022/08/31 02:13:36;;;;;;;1.65;0.50;;;15.00;98.90;;;;;;5000033;28;20052;-54
2022/08/31 02:16:03;;;;;;;2.50;0.82;;;14.90;98.60;;;;;;4963964;28;20114;-54
2022/08/31 02:18:29;;;;;;;3.38;0.70;;;14.90;98.70;;;;;;5002115;28;20408;-55
2022/08/31 02:20:54;;;;;;;1.05;0.70;;;14.80;98.70;;;;;;4999860;28;20070;-54
2022/08/31 02:23:20;;;;;;;1.85;0.68;;;14.70;98.70;;;;;;4981711;28;20057;-51
2022/08/31 02:25:46;;;;;;;0.57;0.50;;;14.80;98.70;;;;;;4983723;28;20484;-54
2022/08/31 02:28:13;;;;;;;1.75;0.60;;;14.70;98.80;;;;;;5040196;22;20044;-61
2022/08/31 02:30:42;;;;;;;1.20;0.65;;;14.80;98.80;;;;;;5039218;28;20071;-60
2022/08/31 02:33:09;;;;;;;1.30;0.90;;;14.70;98.70;;;;;;5043385;28;22328;-61
2022/08/31 02:35:35;;;;;;;1.60;0.57;;;14.70;98.70;;;;;;5045963;28;20045;-61
2022/08/31 02:38:00;;;;;;;1.50;0.90;;;14.70;98.80;;;;;;5031981;28;20047;-60
2022/08/31 02:40:26;;;;;;;1.85;0.68;;;14.60;98.70;;;;;;5043307;28;20037;-61
2022/08/31 02:42:52;;;;;;;2.42;0.70;;;14.60;98.80;;;;;;5036888;28;20403;-59
2022/08/31 02:45:18;;;;;;;1.15;0.60;;;14.60;98.80;;;;;;5047450;28;20060;-60
2022/08/31 02:47:43;;;;;;;1.75;0.60;;;14.60;98.90;;;;;;5037752;28;20036;-59
2022/08/31 02:50:09;;;;;;;1.85;0.60;;;14.60;99.00;;;;;;5040327;28;20428;-60
2022/08/31 02:52:35;;;;;;;1.10;0.60;;;14.50;99.00;;;;;;5018725;28;20048;-61
2022/08/31 02:55:01;;;;;;;0.98;0.32;;;14.50;99.10;;;;;;5042399;28;20044;-61
2022/08/31 02:57:27;;;;;;;1.15;0.60;;;14.40;99.10;;;;;;5037049;28;20040;-60
2022/08/31 02:59:53;;;;;;;2.92;0.43;;;14.40;99.20;;;;;;5022171;28;20033;-61
2022/08/31 03:02:20;;;;;;;1.20;0.60;;;14.40;99.30;;;;;;5020505;28;20040;-63
2022/08/31 03:04:46;;;;;;;1.27;0.57;;;14.40;99.30;;;;;;5042587;28;20319;-60
2022/08/31 03:07:11;;;;;;;1.05;0.60;;;14.30;99.30;;;;;;5021456;28;20048;-60
2022/08/31 03:09:37;;;;;;;1.92;0.50;;;14.30;99.40;;;;;;5030060;28;20037;-62
2022/08/31 03:12:03;;;;;;;1.60;0.57;;;14.20;99.30;;;;;;5015545;28;20033;-60
2022/08/31 03:14:29;;;;;;;1.75;0.63;;;14.20;99.40;;;;;;5046420;28;20040;-61
2022/08/31 03:16:54;;;;;;;1.45;0.50;;;14.20;99.40;;;;;;5045274;28;20037;-58
2022/08/31 03:19:20;;;;;;;4.05;1.15;;;14.20;99.40;;;;;;5034921;28;20098;-60
2022/08/31 03:21:46;;;;;;;1.80;0.70;;;14.20;99.40;;;;;;5036699;28;20395;-61
2022/08/31 03:24:13;;;;;;;1.35;0.70;;;14.20;99.40;;;;;;5023161;28;20876;-60
2022/08/31 03:26:39;;;;;;;2.55;1.38;;;14.10;99.50;;;;;;5038598;28;20118;-60
2022/08/31 03:29:06;;;;;;;1.15;0.70;;;14.10;99.50;;;;;;5030977;28;20041;-60
2022/08/31 03:31:31;;;;;;;1.48;0.70;;;14.10;99.50;;;;;;5044932;28;20089;-57
2022/08/31 03:33:58;;;;;;;2.38;0.70;;;14.10;99.70;;;;;;5037842;28;20923;-57
2022/08/31 03:36:24;;;;;;;1.48;0.80;;;14.00;99.50;;;;;;5020235;28;20045;-59
2022/08/31 03:38:49;;;;;;;4.15;0.63;;;14.00;99.50;;;;;;5016017;28;20396;-61
2022/08/31 03:41:21;;;;;;;0.95;0.77;;;14.00;99.60;;;;;;5026960;28;20072;-61
2022/08/31 03:43:47;;;;;;;3.42;0.80;;;14.00;99.60;;;;;;4999321;28;20152;-59
2022/08/31 03:46:13;;;;;;;1.88;0.70;;;14.00;99.60;;;;;;5041183;28;20487;-59
2022/08/31 03:48:38;;;;;;;1.48;0.82;;;14.00;99.60;;;;;;5025007;28;20124;-59
2022/08/31 03:51:04;;;;;;;3.33;1.00;;;14.00;99.70;;;;;;5029789;28;20048;-59
2022/08/31 03:53:30;;;;;;;2.17;0.80;;;14.00;99.80;;;;;;5019974;28;20052;-60
2022/08/31 03:56:02;;;;;;;2.53;0.80;;;14.00;99.80;;;;;;5034381;28;20048;-59
2022/08/31 03:58:29;;;;;;;1.50;0.70;;;13.90;99.90;;;;;;5027376;28;20431;-59
2022/08/31 04:00:55;;;;;;;2.28;0.90;;;13.90;99.90;;;;;;5041264;28;20068;-60
2022/08/31 04:03:22;;;;;;;3.25;0.98;;;13.90;99.90;;;;;;5031505;28;20048;-60
2022/08/31 04:05:49;;;;;;;3.17;0.90;;;13.90;99.90;;;;;;5021520;28;20076;-60
2022/08/31 04:08:17;;;;;;;2.40;0.80;;;13.90;99.90;;;;;;5012280;28;20206;-60
2022/08/31 04:10:44;;;;;;;2.17;0.95;;;13.90;99.90;;;;;;5045292;28;20403;-58
2022/08/31 04:13:10;;;;;;;1.60;0.80;;;14.00;99.90;;;;;;5015974;28;20124;-59
2022/08/31 04:15:37;;;;;;;1.63;0.90;;;13.90;99.90;;;;;;5041170;28;20119;-61
2022/08/31 04:18:03;;;;;;;3.13;0.80;;;13.90;99.90;;;;;;5010770;28;20041;-57
2022/08/31 04:20:36;;;;;;;1.23;0.93;;;13.90;99.90;;;;;;5002838;28;20068;-58
2022/08/31 04:23:03;;;;;;;2.07;1.00;;;13.90;99.90;;;;;;5008636;28;20465;-61
2022/08/31 04:25:29;;;;;;;2.38;1.02;;;13.90;99.90;;;;;;5022262;28;20059;-60
2022/08/31 04:27:55;;;;;;;3.75;0.98;;;13.90;99.90;;;;;;5027996;28;20041;-58
2022/08/31 04:30:22;;;;;;;1.63;1.00;;;13.80;99.90;;;;;;5030351;28;20487;-58
2022/08/31 04:32:52;;;;;;;2.80;1.15;;;13.80;99.90;;;;;;5021362;28;20264;-60
2022/08/31 04:35:17;;;;;;;4.10;1.00;;;13.80;99.90;;;;;;5052015;28;20037;-57
2022/08/31 04:37:43;;;;;;;3.20;1.10;;;13.80;99.90;;;;;;5036229;28;20051;-60
2022/08/31 04:40:16;;;;;;;1.50;1.17;;;13.80;99.90;;;;;;5044500;28;20033;-60
2022/08/31 04:42:43;;;;;;;2.90;1.50;;;13.80;99.90;;;;;;5043825;28;20037;-60
2022/08/31 04:45:11;;;;;;;2.10;1.00;;;13.70;99.90;;;;;;5037646;28;20070;-58
2022/08/31 04:47:37;;;;;;;2.42;1.02;;;13.70;99.90;;;;;;5031877;28;20049;-61
2022/08/31 04:50:03;;;;;;;2.97;1.20;;;13.70;99.90;;;;;;5027940;28;20392;-58
2022/08/31 04:52:29;;;;;;;2.40;1.25;;;13.70;99.90;;;;;;5004590;28;20083;-62
2022/08/31 04:54:55;;;;;;;3.15;1.20;;;13.70;99.90;;;;;;5041803;28;20033;-58
2022/08/31 04:57:20;;;;;;;4.20;1.27;;;13.70;99.90;;;;;;5019486;28;20053;-59
2022/08/31 04:59:46;;;;;;;1.42;1.00;;;13.70;99.90;;;;;;5018140;28;20520;-60
2022/08/31 05:02:12;;;;;;;6.45;1.20;;;13.70;99.90;;;;;;5037374;28;20048;-61
2022/08/31 05:04:37;;;;;;;3.90;1.38;;;13.70;99.90;;;;;;5027349;28;20049;-58
2022/08/31 05:07:03;;;;;;;2.10;1.30;;;13.70;99.90;;;;;;5041127;28;20187;-55
2022/08/31 05:09:29;;;;;;;1.75;1.00;;;13.80;99.90;;;;;;5009883;28;20036;-58
2022/08/31 05:11:55;;;;;;;2.10;1.00;;;13.70;99.90;;;;;;5029597;28;20037;-58
2022/08/31 05:14:22;;;;;;;3.38;1.55;;;13.70;99.90;;;;;;5039742;28;20037;-58
2022/08/31 05:16:49;;;;;;;7.20;1.35;;;13.80;99.90;;;;;;5039030;28;23133;-57
2022/08/31 05:19:16;;;;;;;2.65;1.30;;;13.80;99.90;;;;;;5037152;28;20036;-62
2022/08/31 05:21:42;;;;;;;2.67;1.40;;;13.80;99.90;;;;;;5036920;28;20507;-59
2022/08/31 05:24:11;;;;;;;2.63;1.58;;;13.80;99.90;;;;;;4984993;28;20037;-60
2022/08/31 05:26:43;;;;;;;3.40;1.55;;;13.90;99.90;;;;;;5018671;28;20033;-61
2022/08/31 05:29:10;;;;;;;3.30;1.55;;;13.90;99.90;;;;;;5015265;28;20411;-59
2022/08/31 05:31:37;;;;;;;4.60;1.33;;;14.00;99.90;;;;;;5033791;28;20130;-61
2022/08/31 05:34:04;;;;;;;4.53;1.80;;;14.00;99.90;;;;;;5030875;28;20037;-61
2022/08/31 05:36:30;;;;;;;5.15;1.67;;;14.00;99.90;;;;;;5038925;28;20476;-60
2022/08/31 05:38:57;;;;;;;5.03;1.52;;;14.00;99.90;;;;;;5039184;28;20098;-56
2022/08/31 05:41:23;;;;;;;2.47;1.38;;;14.10;99.90;;;;;;5012718;28;20075;-60
2022/08/31 05:43:49;;;;;;;5.15;1.92;;;14.10;99.90;;;;;;5025733;28;20086;-62
2022/08/31 05:46:15;;;;;;;5.10;1.42;;;14.20;99.90;;;;;;5000523;28;20049;-61
2022/08/31 05:48:42;;;;;;;1.70;1.20;;;14.30;99.90;;;;;;5037287;28;20060;-61
2022/08/31 05:51:11;;;;;;;3.78;1.70;;;14.30;99.90;;;;;;5036481;28;20091;-60
2022/08/31 05:53:37;;;;;;;2.15;1.20;;;14.30;99.90;;;;;;5044308;28;20541;-61
2022/08/31 05:56:16;;;;;;;3.17;2.03;;;14.40;99.90;;;;;;5024454;28;20048;-59
2022/08/31 05:58:43;;;;;;;4.70;1.50;;;14.50;99.90;;;;;;5033032;28;20045;-62
2022/08/31 06:01:17;;;;;;;3.10;1.30;;;14.60;99.90;;;;;;5035343;28;20587;-60
2022/08/31 06:03:43;;;;;;;3.45;1.48;;;14.60;99.90;;;;;;5013478;28;20029;-57
2022/08/31 06:06:11;;;;;;;3.20;1.10;;;14.70;99.90;;;;;;5025842;28;20044;-61
2022/08/31 06:08:38;;;;;;;4.82;1.73;;;14.80;99.90;;;;;;5045445;28;20452;-60
2022/08/31 06:11:06;;;;;;;2.97;1.10;;;14.80;99.90;;;;;;5036702;28;20056;-61
2022/08/31 06:13:32;;;;;;;2.55;1.40;;;14.90;99.90;;;;;;5027936;28;20048;-60
2022/08/31 06:16:01;;;;;;;1.92;1.10;;;15.00;99.90;;;;;;5039938;28;20044;-60
2022/08/31 06:18:27;;;;;;;2.95;1.25;;;15.10;99.90;;;;;;5016843;28;20041;-61
2022/08/31 06:21:08;;;;;;;2.38;0.90;;;15.20;99.90;;;;;;5041211;28;21525;-64
2022/08/31 06:23:38;;;;;;;4.10;1.48;;;15.30;99.90;;;;;;5035670;28;20086;-59
2022/08/31 06:26:08;;;;;;;5.28;1.17;;;15.40;99.90;;;;;;5046896;28;20064;-60
2022/08/31 06:28:35;;;;;;;4.43;1.20;;;15.50;99.90;;;;;;5020735;28;20045;-60
2022/08/31 06:31:01;;;;;;;3.95;1.33;;;15.50;99.90;;;;;;5043372;28;20048;-63
2022/08/31 06:33:28;;;;;;;2.30;0.93;;;15.60;99.90;;;;;;5009492;28;20052;-62
2022/08/31 06:35:54;;;;;;;2.75;0.98;;;15.70;99.90;;;;;;5044961;28;20114;-58
2022/08/31 06:38:21;;;;;;;2.47;0.88;;;15.80;99.90;;;;;;5051612;28;20033;-60
2022/08/31 06:40:46;;;;;;;3.15;1.00;;;15.90;99.90;;;;;;5045991;28;20200;-62
2022/08/31 06:43:12;;;;;;;2.67;0.88;;;16.00;99.90;;;;;;5033256;28;20291;-61
2022/08/31 06:45:38;;;;;;;3.45;0.90;;;16.00;99.90;;;;;;5042010;28;20090;-63
2022/08/31 06:48:04;;;;;;;4.25;1.08;;;16.20;99.90;;;;;;5053567;28;20041;-61
2022/08/31 06:50:31;;;;;;;1.35;0.75;;;16.30;99.90;;;;;;5018676;28;20511;-60
2022/08/31 06:52:57;;;;;;;1.63;0.70;;;16.30;99.90;;;;;;5038147;28;20183;-60
2022/08/31 06:55:23;;;;;;;2.60;0.90;;;16.40;99.90;;;;;;5013089;28;20370;-60
2022/08/31 06:57:49;;;;;;;3.20;1.08;;;16.50;99.90;;;;;;5007927;28;20111;-62
2022/08/31 07:00:14;;;;;;;0.85;0.70;;;16.60;99.90;;;;;;5033108;28;20040;-60
2022/08/31 07:02:40;;;;;;;1.60;0.75;;;16.70;99.90;;;;;;5011915;28;20498;-65
2022/08/31 07:05:06;;;;;;;1.38;0.80;;;16.80;99.90;;;;;;5032567;28;20075;-60
2022/08/31 07:07:32;;;;;;;3.72;0.90;;;16.90;99.90;;;;;;5039494;28;20132;-63
2022/08/31 07:09:58;;;;;;;1.35;0.80;;;17.00;99.90;;;;;;5021849;28;20603;-63
2022/08/31 07:12:24;;;;;;;2.42;1.33;;;17.10;99.90;;;;;;5023529;28;20029;-61
2022/08/31 07:14:50;;;;;;;6.18;0.93;;;17.20;99.70;;;;;;5025044;28;20060;-63
2022/08/31 07:17:16;;;;;;;1.58;0.80;;;17.40;99.60;;;;;;5028366;28;20121;-58
2022/08/31 07:19:41;;;;;;;2.58;1.10;;;17.40;99.40;;;;;;5027388;28;20047;-62
2022/08/31 07:22:08;;;;;;;4.18;1.00;;;17.50;99.20;;;;;;5014966;28;20050;-60
2022/08/31 07:24:35;;;;;;;2.38;0.90;;;17.60;99.10;;;;;;5035099;28;20173;-59
2022/08/31 07:27:09;;;;;;;1.92;0.90;;;17.70;99.20;;;;;;5033875;28;20405;-60
2022/08/31 07:29:39;;;;;;;5.88;1.00;;;17.80;99.20;;;;;;4994842;28;20439;-61
2022/08/31 07:32:14;;;;;;;2.55;1.05;;;17.90;99.20;;;;;;5003081;28;20051;-61
2022/08/31 07:34:42;;;;;;;5.50;1.00;;;17.90;98.90;;;;;;5038193;28;20068;-63
2022/08/31 07:42:42;;;;;;;2.28;1.00;;;18.10;98.80;;;;;;5030451;28;20047;-60
2022/08/31 07:45:11;;;;;;;1.70;0.82;;;18.20;98.30;;;;;;5050647;28;20103;-60
2022/08/31 07:47:44;;;;;;;1.25;0.90;;;18.30;98.00;;;;;;5041789;28;20053;-64
2022/08/31 07:50:12;;;;;;;1.35;0.90;;;18.30;97.50;;;;;;5053716;28;20468;-62
2022/08/31 07:52:45;;;;;;;2.38;0.73;;;18.40;97.30;;;;;;5044857;28;20048;-60
2022/08/31 07:55:13;;;;;;;4.53;0.82;;;18.50;97.10;;;;;;5013287;28;20041;-60
2022/08/31 07:57:42;;;;;;;1.27;0.70;;;18.60;97.10;;;;;;5042933;28;20033;-63
2022/08/31 08:00:18;;;;;;;1.55;0.82;;;18.60;97.10;;;;;;5047980;28;21736;-63
2022/08/31 08:02:46;;;;;;;1.70;0.65;;;18.80;96.70;;;;;;5020134;28;20117;-64
2022/08/31 08:05:22;;;;;;;1.10;0.70;;;18.90;96.20;;;;;;5054571;28;20045;-65
2022/08/31 08:07:50;;;;;;;2.63;0.88;;;18.90;95.90;;;;;;5007145;28;20048;-63
2022/08/31 08:10:18;;;;;;;2.53;0.77;;;18.90;95.90;;;;;;5050423;28;20102;-64
2022/08/31 08:12:52;;;;;;;2.53;0.95;;;19.10;96.00;;;;;;5046138;28;20081;-64
2022/08/31 08:15:18;;;;;;;2.10;0.75;;;19.20;95.50;;;;;;5038135;28;20826;-62
2022/08/31 08:17:44;;;;;;;1.85;0.52;;;19.30;95.30;;;;;;5026188;28;20037;-64
2022/08/31 08:20:09;;;;;;;1.55;0.63;;;19.30;94.10;;;;;;5031071;28;20033;-62
2022/08/31 08:22:39;;;;;;;0.82;0.60;;;19.30;94.00;;;;;;5040856;28;20376;-63
2022/08/31 08:25:06;;;;;;;1.75;0.40;;;19.30;94.20;;;;;;5042890;28;20067;-62
2022/08/31 08:30:07;;;;;;;0.90;0.70;;;19.50;93.80;;;;;;5016670;28;20060;-52
2022/08/31 08:32:34;;;;;;;2.00;0.90;;;19.50;93.90;;;;;;5002770;28;20068;-52
2022/08/31 08:35:00;;;;;;;1.88;0.70;;;19.60;94.20;;;;;;5000104;28;20043;-56
2022/08/31 08:37:26;;;;;;;2.63;0.70;;;19.70;94.10;;;;;;5004754;28;20057;-55
2022/08/31 08:39:53;;;;;;;2.85;0.60;;;19.80;94.00;;;;;;4988975;28;20046;-53
2022/08/31 08:42:21;;;;;;;1.60;0.90;;;20.00;94.10;;;;;;5019573;28;20034;-54
2022/08/31 08:44:46;;;;;;;1.95;1.00;;;19.90;92.90;;;;;;5004699;28;20635;-56
2022/08/31 08:47:24;;;;;;;1.67;0.75;;;20.00;93.40;;;;;;5020788;28;20041;-51
2022/08/31 08:49:55;;;;;;;2.85;0.70;;;20.00;92.80;;;;;;5021933;28;20412;-51
2022/08/31 08:52:40;;;;;;;1.98;0.82;;;20.10;93.00;;;;;;5005036;28;20060;-54
2022/08/31 08:55:20;;;;;;;1.45;0.63;;;20.10;92.90;;;;;;5002537;28;20125;-56
2022/08/31 08:57:48;;;;;;;1.92;0.80;;;20.20;92.50;;;;;;5002584;28;20568;-56
2022/08/31 09:00:18;;;;;;;1.48;0.77;;;20.30;92.70;;;;;;4992655;28;20085;-56
2022/08/31 09:03:00;;;;;;;1.88;1.02;;;20.40;92.30;;;;;;4996669;28;20092;-51
2022/08/31 09:06:08;;;;;;;1.85;0.75;;;20.50;93.10;;;;;;5013891;28;20512;-55
2022/08/31 09:09:07;;;;;;;2.17;0.70;;;20.60;92.50;;;;;;5020137;28;20041;-53
2022/08/31 09:11:56;;;;;;;2.58;0.80;;;20.60;92.10;;;;;;4998648;28;20053;-56
2022/08/31 09:14:37;;;;;;;1.90;0.85;;;20.80;92.00;;;;;;4987772;28;20331;-50
2022/08/31 09:17:02;;;;;;;3.65;1.08;;;20.80;92.20;;;;;;5002780;28;20045;-56
2022/08/31 09:19:57;;;;;;;2.13;0.90;;;20.80;92.20;;;;;;4996824;28;20501;-52
2022/08/31 09:22:14;;;;;;;3.90;1.00;;;20.80;91.30;;;;;;5018529;28;20087;-54
2022/08/31 09:24:40;;;;;;;3.60;0.95;;;20.80;92.10;;;;;;4993286;28;20124;-53
2022/08/31 09:27:18;;;;;;;2.67;0.80;;;21.00;91.80;;;;;;4998624;28;20717;-56
2022/08/31 09:29:57;;;;;;;3.80;1.00;;;21.20;91.60;;;;;;4997305;28;20041;-52
2022/08/31 09:32:30;;;;;;;2.67;0.75;;;21.20;91.10;;;;;;4999985;28;20042;-53
2022/08/31 09:35:03;;;;;;;1.75;0.85;;;21.30;90.60;;;;;;5005636;28;20052;-53
2022/08/31 09:37:40;;;;;;;2.47;0.80;;;21.20;91.20;;;;;;5010518;28;20045;-53
2022/08/31 09:40:14;;;;;;;0.90;0.80;;;21.10;91.50;;;;;;4990293;28;20389;-53
2022/08/31 09:42:42;;;;;;;1.42;0.82;;;21.20;91.00;;;;;;5004200;28;20052;-55
2022/08/31 09:45:28;;;;;;;0.70;0.60;;;21.00;90.70;;;;;;4988675;28;20046;-52
2022/08/31 09:47:59;;;;;;;2.38;1.10;;;20.80;90.80;;;;;;4994023;28;20056;-54
2022/08/31 09:50:31;;;;;;;1.45;0.95;;;20.80;90.70;;;;;;4981950;28;20412;-55
2022/08/31 09:56:21;;;;;;;3.05;0.93;;;20.80;91.20;;;;;;4982788;28;20132;-56
2022/08/31 09:58:55;;;;;;;1.42;0.90;;;20.80;90.60;;;;;;5003001;28;20377;-54
2022/08/31 10:01:43;;;;;;;1.85;0.68;;;20.70;90.70;;;;;;5000245;28;20068;-52
2022/08/31 10:04:26;;;;;;;2.70;0.90;;;20.70;90.40;;;;;;4998986;28;20045;-54
2022/08/31 10:06:58;;;;;;;1.60;0.90;;;20.90;90.50;;;;;;5005076;28;20065;-52
2022/08/31 10:09:48;;;;;;;2.45;0.80;;;21.00;90.40;;;;;;4992630;28;20447;-54
2022/08/31 10:12:20;;;;;;;3.90;0.80;;;20.90;90.40;;;;;;5022381;28;20054;-51
2022/08/31 10:14:53;;;;;;;4.70;1.85;;;20.80;90.30;;;;;;5009204;28;20044;-53
2022/08/31 10:17:24;;;;;;;1.85;0.60;;;20.90;90.30;;;;;;4982817;28;20043;-53
2022/08/31 10:20:21;;;;;;;2.13;0.75;;;21.10;90.00;;;;;;4995402;28;20053;-54
2022/08/31 10:22:55;;;;;;;1.63;0.80;;;21.30;87.10;;;;;;4999482;28;20132;-53
2022/08/31 10:25:44;;;;;;;1.38;0.75;;;21.60;87.80;;;;;;5015184;28;20056;-51
2022/08/31 10:28:35;;;;;;;0.73;0.63;;;21.70;87.00;;;;;;5024264;28;20472;-54
2022/08/31 10:31:43;;;;;;;3.33;0.75;;;21.70;87.00;;;;;;4996482;28;20459;-52
2022/08/31 10:37:30;;;;;;;4.60;1.33;;;21.90;87.70;;;;;;5008528;28;20141;-53
2022/08/31 10:40:18;;;;;;;2.35;0.70;;;21.80;85.70;;;;;;4996237;28;20048;-57
2022/08/31 10:42:58;;;;;;;1.25;0.68;;;21.90;87.10;;;;;;4983890;28;20045;-55
2022/08/31 10:45:28;;;;;;;1.17;0.70;;;22.00;84.70;;;;;;4999970;28;20100;-54
2022/08/31 10:47:56;;;;;;;1.95;0.70;;;21.70;83.70;;;;;;5000162;28;20069;-54
2022/08/31 10:50:29;;;;;;;1.10;0.70;;;21.80;84.40;;;;;;4970399;28;20485;-54
2022/08/31 10:52:59;;;;;;;1.63;0.77;;;21.60;85.00;;;;;;5002997;28;20697;-53
2022/08/31 10:55:39;;;;;;;1.48;0.82;;;21.90;85.10;;;;;;5015987;28;20052;-52
2022/08/31 10:58:25;;;;;;;2.97;0.73;;;22.20;85.40;;;;;;4989679;28;20046;-52
2022/08/31 11:01:26;;;;;;;2.10;0.85;;;22.50;84.20;;;;;;4984051;28;20100;-54
2022/08/31 11:04:13;;;;;;;2.17;0.82;;;22.40;84.00;;;;;;5002028;28;20108;-54
2022/08/31 11:06:55;;;;;;;1.92;0.90;;;22.60;85.50;;;;;;4998552;28;20048;-51
2022/08/31 11:09:24;;;;;;;2.53;1.10;;;22.70;82.50;;;;;;5003322;28;20705;-52
2022/08/31 11:12:03;;;;;;;1.70;0.68;;;22.70;82.10;;;;;;4987582;28;20057;-54
2022/08/31 11:14:44;;;;;;;1.77;0.73;;;22.70;82.00;;;;;;5003053;28;20045;-55
2022/08/31 11:17:42;;;;;;;4.53;0.80;;;22.60;81.10;;;;;;5001445;28;20405;-55
2022/08/31 11:20:38;;;;;;;1.10;0.63;;;22.60;81.80;;;;;;5001020;28;20092;-54
2022/08/31 11:23:19;;;;;;;1.80;0.60;;;22.70;82.10;;;;;;4974771;28;20494;-55
2022/08/31 11:26:15;;;;;;;1.50;0.70;;;22.70;80.60;;;;;;5001432;28;20134;-55
2022/08/31 11:28:47;;;;;;;2.70;1.20;;;22.70;80.20;;;;;;4983449;28;20045;-54
2022/08/31 11:31:22;;;;;;;2.97;0.85;;;22.90;82.10;;;;;;4988135;28;20131;-54
2022/08/31 11:33:56;;;;;;;2.72;1.08;;;23.00;81.60;;;;;;5004481;28;20103;-53
2022/08/31 11:36:46;;;;;;;1.70;0.73;;;23.30;82.80;;;;;;5011241;28;20535;-53
2022/08/31 11:39:13;;;;;;;0.98;0.70;;;23.30;81.00;;;;;;4997598;28;20049;-54
2022/08/31 11:41:47;;;;;;;3.17;0.70;;;23.50;81.50;;;;;;5013430;28;20037;-55
2022/08/31 11:44:30;;;;;;;0.70;0.70;;;23.40;79.30;;;;;;5005196;28;20048;-54
2022/08/31 11:47:33;;;;;;;1.30;0.70;;;23.40;79.90;;;;;;5018305;28;20286;-53
2022/08/31 11:50:20;;;;;;;1.30;0.77;;;23.70;80.80;;;;;;5016232;28;20034;-54
2022/08/31 11:52:47;;;;;;;1.33;0.73;;;23.70;78.50;;;;;;5007491;28;20618;-54
2022/08/31 11:55:19;;;;;;;2.55;0.82;;;23.70;78.50;;;;;;4993613;28;20054;-54
2022/08/31 11:58:08;;;;;;;9.27;1.08;;;23.60;78.70;;;;;;5003951;28;20560;-54
2022/08/31 12:01:08;;;;;;;2.75;0.75;;;23.70;77.50;;;;;;4996220;28;20033;-54
2022/08/31 12:03:51;;;;;;;2.15;0.77;;;23.70;78.20;;;;;;4996705;28;20045;-54
2022/08/31 12:06:32;;;;;;;3.50;0.70;;;23.70;78.60;;;;;;5019612;28;20512;-55
2022/08/31 12:09:09;;;;;;;2.70;0.80;;;23.70;78.20;;;;;;5001688;28;20503;-55
2022/08/31 12:11:54;;;;;;;1.08;0.75;;;23.70;79.00;;;;;;5007111;28;20045;-55
2022/08/31 12:14:29;;;;;;;1.75;0.70;;;23.70;79.20;;;;;;5013129;28;20072;-55
2022/08/31 12:17:12;;;;;;;2.70;0.75;;;23.80;76.10;;;;;;5003019;28;20045;-55
2022/08/31 12:19:59;;;;;;;2.17;0.80;;;23.90;75.50;;;;;;5005889;28;20119;-55
2022/08/31 12:25:51;;;;;;;4.63;0.80;;;23.90;79.20;;;;;;5007645;28;20049;-53
2022/08/31 12:28:29;;;;;;;3.05;0.85;;;24.20;81.80;;;;;;5005098;28;20041;-55
2022/08/31 12:30:57;;;;;;;3.38;0.88;;;24.40;81.60;;;;;;5020364;28;20030;-55
2022/08/31 12:33:29;;;;;;;2.15;0.88;;;24.40;80.30;;;;;;5021020;28;20091;-55
2022/08/31 12:36:14;;;;;;;1.60;0.90;;;24.30;81.30;;;;;;5029162;28;20053;-55
2022/08/31 12:38:40;;;;;;;3.67;0.90;;;24.20;80.20;;;;;;4988466;28;20049;-55
2022/08/31 12:41:09;;;;;;;2.35;0.80;;;24.20;81.70;;;;;;5012952;28;20030;-53
2022/08/31 12:43:47;;;;;;;3.15;0.80;;;24.40;82.30;;;;;;5016561;28;20048;-54
2022/08/31 12:46:44;;;;;;;3.53;0.90;;;24.50;81.90;;;;;;5018416;28;20554;-52
2022/08/31 12:49:20;;;;;;;2.10;0.90;;;24.40;80.40;;;;;;4992712;28;20276;-55
2022/08/31 12:51:59;;;;;;;2.05;0.80;;;24.50;80.80;;;;;;5013540;28;20048;-55
2022/08/31 12:54:40;;;;;;;3.53;0.80;;;24.50;80.00;;;;;;5022163;28;20052;-55
2022/08/31 12:57:34;;;;;;;1.90;0.85;;;24.50;79.90;;;;;;4982154;28;20049;-55
2022/08/31 13:00:33;;;;;;;4.32;1.10;;;24.60;80.10;;;;;;5017392;28;20050;-55
2022/08/31 13:03:16;;;;;;;2.17;0.77;;;24.40;78.90;;;;;;5018479;28;20037;-54
2022/08/31 13:05:57;;;;;;;2.55;0.90;;;24.20;80.10;;;;;;4997885;28;20069;-55
2022/08/31 13:08:24;;;;;;;1.65;0.90;;;24.30;80.60;;;;;;5020549;28;20041;-54
2022/08/31 13:10:51;;;;;;;1.50;0.65;;;24.50;80.50;;;;;;5025027;28;20042;-52
2022/08/31 13:13:27;;;;;;;3.65;1.08;;;24.80;80.40;;;;;;5000055;28;20096;-56
2022/08/31 13:16:03;;;;;;;2.38;0.73;;;24.90;80.10;;;;;;5005503;28;20132;-57
2022/08/31 13:18:30;;;;;;;5.20;1.10;;;24.80;79.10;;;;;;5008333;28;20574;-57
2022/08/31 13:21:05;;;;;;;2.80;0.98;;;24.70;79.30;;;;;;5012242;28;20432;-56
2022/08/31 13:23:37;;;;;;;17.70;1.48;;;24.60;79.80;;;;;;4979008;28;20499;-56
2022/08/31 13:26:18;;;;;;;2.08;0.70;;;24.50;78.60;;;;;;5009964;28;20044;-55
2022/08/31 13:28:57;;;;;;;2.63;0.85;;;24.50;79.40;;;;;;4995009;28;20046;-56
2022/08/31 13:31:27;;;;;;;2.88;1.35;;;24.80;79.10;;;;;;5002578;28;20052;-56